Time;durP1;ratioP1;P1;durP2;ratioP2;P2;SDS_P1;SDS_P2;PMS_P1;PMS_P2;Temp;Humidity;BMP_temperature;BMP_pressure;BME280_temperature;BME280_humidity;BME280_pressure;Samples;Min_cycle;Max_cycle;Signal;HPM_P1;HPM_P2
2021/06/22 00:01:51;;;;;;;7.18;6.57;;;;;;;;;;5094510;28;20030;-71
2021/06/22 00:04:17;;;;;;;7.97;7.28;;;;;;;;;;5094579;28;20024;-71
2021/06/22 00:06:43;;;;;;;7.82;7.03;;;;;;;;;;5094303;28;20016;-71
2021/06/22 00:09:10;;;;;;;12.13;7.10;;;;;;;;;;5094217;28;20067;-71
2021/06/22 00:11:36;;;;;;;7.95;7.15;;;;;;;;;;5094171;28;20039;-71
2021/06/22 00:14:02;;;;;;;8.13;7.43;;;;;;;;;;5094227;28;20034;-71
2021/06/22 00:16:28;;;;;;;8.70;7.90;;;;;;;;;;5094748;28;20059;-71
2021/06/22 00:18:54;;;;;;;8.23;7.53;;;;;;;;;;5094481;28;20024;-71
2021/06/22 00:21:20;;;;;;;8.10;7.22;;;;;;;;;;5094059;28;20150;-71
2021/06/22 00:23:46;;;;;;;9.55;7.43;;;;;;;;;;5094082;28;20020;-71
2021/06/22 00:26:12;;;;;;;8.35;7.38;;;;;;;;;;5093797;28;20020;-71
2021/06/22 00:28:38;;;;;;;7.65;7.05;;;;;;;;;;5094372;28;20538;-71
2021/06/22 00:31:04;;;;;;;7.10;6.50;;;;;;;;;;5094010;28;20035;-71
2021/06/22 00:33:30;;;;;;;11.75;6.57;;;;;;;;;;5094035;28;20484;-71
2021/06/22 00:35:56;;;;;;;10.60;7.90;;;;;;;;;;5094126;28;20054;-71
2021/06/22 00:38:22;;;;;;;10.50;8.07;;;;;;;;;;5094139;28;20028;-71
2021/06/22 00:40:48;;;;;;;7.63;6.93;;;;;;;;;;5093776;28;20470;-71
2021/06/22 00:43:14;;;;;;;7.93;7.20;;;;;;;;;;5094381;28;20374;-71
2021/06/22 00:45:43;;;;;;;8.45;7.65;;;;;;;;;;5093747;28;20046;-71
2021/06/22 00:48:09;;;;;;;10.77;7.45;;;;;;;;;;5093817;28;20036;-71
2021/06/22 00:50:35;;;;;;;7.95;6.80;;;;;;;;;;5093793;28;20052;-71
2021/06/22 00:53:01;;;;;;;8.20;7.45;;;;;;;;;;5093916;28;20535;-71
2021/06/22 00:55:29;;;;;;;7.13;6.50;;;;;;;;;;5093348;28;20115;-71
2021/06/22 00:57:57;;;;;;;12.88;7.47;;;;;;;;;;5094023;28;20024;-71
2021/06/22 01:00:23;;;;;;;7.75;7.05;;;;;;;;;;5095932;28;20081;-71
2021/06/22 01:02:49;;;;;;;6.97;6.28;;;;;;;;;;5098119;28;20063;-71
2021/06/22 01:05:16;;;;;;;11.18;7.38;;;;;;;;;;5098053;28;20031;-71
2021/06/22 01:07:42;;;;;;;7.97;7.18;;;;;;;;;;5097596;28;20063;-71
2021/06/22 01:10:08;;;;;;;7.50;6.90;;;;;;;;;;5097540;28;20036;-71
2021/06/22 01:12:34;;;;;;;7.22;6.53;;;;;;;;;;5098321;28;20020;-71
2021/06/22 01:15:00;;;;;;;7.88;7.10;;;;;;;;;;5098027;28;20034;-71
2021/06/22 01:17:28;;;;;;;7.90;7.05;;;;;;;;;;5098008;28;20036;-71
2021/06/22 01:19:54;;;;;;;8.65;7.88;;;;;;;;;;5097534;28;20051;-71
2021/06/22 01:22:20;;;;;;;8.20;7.07;;;;;;;;;;5097470;28;20385;-71
2021/06/22 01:24:46;;;;;;;7.80;7.05;;;;;;;;;;5097316;28;20070;-71
2021/06/22 01:27:12;;;;;;;8.60;7.10;;;;;;;;;;5097347;28;20097;-71
2021/06/22 01:29:38;;;;;;;8.73;7.68;;;;;;;;;;5097254;28;20043;-71
2021/06/22 01:32:07;;;;;;;8.20;7.43;;;;;;;;;;5097728;28;20028;-71
2021/06/22 01:34:33;;;;;;;10.32;7.13;;;;;;;;;;5097254;28;20032;-71
2021/06/22 01:37:00;;;;;;;9.18;7.88;;;;;;;;;;5097167;28;20036;-71
2021/06/22 01:39:26;;;;;;;7.47;6.78;;;;;;;;;;5096852;28;20035;-71
2021/06/22 01:41:52;;;;;;;9.45;7.28;;;;;;;;;;5097813;28;20032;-71
2021/06/22 01:44:18;;;;;;;8.50;7.70;;;;;;;;;;5097553;28;20026;-71
2021/06/22 01:46:44;;;;;;;8.45;7.10;;;;;;;;;;5097082;28;20031;-71
2021/06/22 01:49:10;;;;;;;7.60;6.90;;;;;;;;;;5096715;28;20119;-71
2021/06/22 01:51:36;;;;;;;13.73;7.32;;;;;;;;;;5096915;28;20035;-71
2021/06/22 01:54:02;;;;;;;7.07;6.43;;;;;;;;;;5096621;28;20024;-71
2021/06/22 01:56:29;;;;;;;10.40;7.63;;;;;;;;;;5096803;28;20382;-71
2021/06/22 01:58:55;;;;;;;10.80;6.90;;;;;;;;;;5097017;28;20032;-71
2021/06/22 02:01:21;;;;;;;8.13;7.43;;;;;;;;;;5096774;28;20024;-71
2021/06/22 02:03:47;;;;;;;7.70;7.00;;;;;;;;;;5096930;28;20025;-70
2021/06/22 02:06:13;;;;;;;8.48;7.68;;;;;;;;;;5096631;28;20060;-70
2021/06/22 02:08:39;;;;;;;10.02;7.57;;;;;;;;;;5096464;28;20530;-71
2021/06/22 02:11:05;;;;;;;8.60;7.40;;;;;;;;;;5096049;28;20458;-71
2021/06/22 02:13:31;;;;;;;13.80;8.48;;;;;;;;;;5096424;28;20374;-71
2021/06/22 02:15:58;;;;;;;8.73;7.50;;;;;;;;;;5096267;28;20476;-71
2021/06/22 02:18:25;;;;;;;18.10;9.07;;;;;;;;;;5096563;28;20032;-73
2021/06/22 02:20:51;;;;;;;13.60;8.20;;;;;;;;;;5096244;28;20024;-73
2021/06/22 02:23:17;;;;;;;8.43;7.50;;;;;;;;;;5096270;28;20031;-73
2021/06/22 02:25:44;;;;;;;8.85;8.05;;;;;;;;;;5096288;28;20024;-73
2021/06/22 02:28:11;;;;;;;9.75;7.55;;;;;;;;;;5096788;28;20074;-72
2021/06/22 02:30:38;;;;;;;8.10;7.43;;;;;;;;;;5096370;28;20040;-73
2021/06/22 02:33:04;;;;;;;11.07;7.43;;;;;;;;;;5096206;28;20026;-72
2021/06/22 02:35:31;;;;;;;9.25;7.40;;;;;;;;;;5096140;28;20024;-73
2021/06/22 02:37:57;;;;;;;8.73;7.32;;;;;;;;;;5095965;28;20466;-73
2021/06/22 02:40:24;;;;;;;18.70;8.02;;;;;;;;;;5096005;28;20047;-73
2021/06/22 02:42:50;;;;;;;9.07;7.97;;;;;;;;;;5095805;28;20434;-73
2021/06/22 02:45:16;;;;;;;7.68;6.97;;;;;;;;;;5095511;28;20351;-73
2021/06/22 02:47:43;;;;;;;8.63;7.88;;;;;;;;;;5095986;28;20381;-72
2021/06/22 02:50:09;;;;;;;13.35;8.10;;;;;;;;;;5095177;28;20055;-72
2021/06/22 02:52:35;;;;;;;7.82;7.15;;;;;;;;;;5095372;28;20039;-73
2021/06/22 02:55:01;;;;;;;8.18;7.35;;;;;;;;;;5095851;28;20029;-73
2021/06/22 02:57:27;;;;;;;7.80;7.20;;;;;;;;;;5096240;28;20032;-73
2021/06/22 02:59:54;;;;;;;15.00;8.60;;;;;;;;;;5095729;28;20031;-73
2021/06/22 03:02:20;;;;;;;11.70;7.40;;;;;;;;;;5095560;28;20016;-73
2021/06/22 03:04:46;;;;;;;9.35;7.13;;;;;;;;;;5095586;28;20031;-73
2021/06/22 03:07:12;;;;;;;10.18;8.05;;;;;;;;;;5095294;28;20030;-73
2021/06/22 03:09:38;;;;;;;40.80;20.63;;;;;;;;;;5095381;28;20036;-73
2021/06/22 03:12:04;;;;;;;124.40;42.28;;;;;;;;;;5095410;28;20028;-73
2021/06/22 03:14:30;;;;;;;114.85;42.30;;;;;;;;;;5095521;28;20080;-73
2021/06/22 03:16:56;;;;;;;91.78;35.10;;;;;;;;;;5095288;28;20024;-73
2021/06/22 03:19:22;;;;;;;77.03;28.38;;;;;;;;;;5094949;28;20027;-73
2021/06/22 03:21:49;;;;;;;71.72;30.60;;;;;;;;;;5094482;28;20378;-73
2021/06/22 03:24:15;;;;;;;51.47;23.88;;;;;;;;;;5094374;28;20165;-73
2021/06/22 03:26:41;;;;;;;54.35;23.77;;;;;;;;;;5095679;28;20024;-73
2021/06/22 03:29:08;;;;;;;56.38;25.20;;;;;;;;;;5095392;28;20032;-73
2021/06/22 03:31:35;;;;;;;50.05;23.55;;;;;;;;;;5095170;28;20031;-73
2021/06/22 03:34:01;;;;;;;55.05;23.48;;;;;;;;;;5094748;28;20024;-73
2021/06/22 03:36:27;;;;;;;55.95;21.27;;;;;;;;;;5094847;28;20074;-73
2021/06/22 03:38:53;;;;;;;54.72;20.00;;;;;;;;;;5095620;28;20038;-73
2021/06/22 03:41:19;;;;;;;46.45;18.63;;;;;;;;;;5094877;28;20024;-73
2021/06/22 03:43:45;;;;;;;33.03;17.60;;;;;;;;;;5094780;28;20032;-73
2021/06/22 03:46:16;;;;;;;37.70;16.02;;;;;;;;;;5095003;28;20422;-73
2021/06/22 03:48:42;;;;;;;33.97;15.73;;;;;;;;;;5094568;28;20032;-73
2021/06/22 03:51:08;;;;;;;37.28;16.17;;;;;;;;;;5094373;28;20204;-72
2021/06/22 03:53:37;;;;;;;33.13;15.35;;;;;;;;;;5095242;28;20020;-72
2021/06/22 03:56:03;;;;;;;24.67;15.07;;;;;;;;;;5094477;28;20024;-72
2021/06/22 03:58:29;;;;;;;19.33;11.60;;;;;;;;;;5094894;28;20020;-72
2021/06/22 04:00:55;;;;;;;21.73;10.55;;;;;;;;;;5094654;28;20107;-72
2021/06/22 04:03:21;;;;;;;22.45;13.43;;;;;;;;;;5094441;28;20065;-72
2021/06/22 04:05:47;;;;;;;19.58;12.18;;;;;;;;;;5094310;28;20024;-72
2021/06/22 04:08:14;;;;;;;18.92;12.32;;;;;;;;;;5095183;28;20081;-73
2021/06/22 04:10:40;;;;;;;15.68;12.27;;;;;;;;;;5094696;28;20062;-72
2021/06/22 04:13:06;;;;;;;20.52;12.27;;;;;;;;;;5093927;28;20373;-72
2021/06/22 04:15:32;;;;;;;34.10;12.20;;;;;;;;;;5094208;28;20382;-72
2021/06/22 04:18:02;;;;;;;24.92;12.70;;;;;;;;;;5094182;28;20035;-72
2021/06/22 04:20:28;;;;;;;13.23;10.88;;;;;;;;;;5093898;28;20081;-73
2021/06/22 04:22:55;;;;;;;16.55;12.52;;;;;;;;;;5093943;28;20021;-73
2021/06/22 04:25:21;;;;;;;11.25;10.07;;;;;;;;;;5094591;28;20438;-72
2021/06/22 04:27:47;;;;;;;14.80;11.27;;;;;;;;;;5094418;28;20020;-74
2021/06/22 04:30:13;;;;;;;16.80;12.20;;;;;;;;;;5093962;28;20123;-74
2021/06/22 04:32:39;;;;;;;16.63;11.32;;;;;;;;;;5093981;28;20029;-73
2021/06/22 04:35:05;;;;;;;21.42;13.00;;;;;;;;;;5093855;28;20489;-73
2021/06/22 04:37:31;;;;;;;17.52;10.70;;;;;;;;;;5094542;28;20031;-73
2021/06/22 04:39:58;;;;;;;15.60;11.98;;;;;;;;;;5094438;28;20477;-73
2021/06/22 04:42:24;;;;;;;19.42;10.93;;;;;;;;;;5093959;28;20032;-73
2021/06/22 04:44:50;;;;;;;18.92;12.07;;;;;;;;;;5093869;28;20031;-73
2021/06/22 04:47:16;;;;;;;13.13;9.65;;;;;;;;;;5093787;28;20020;-73
2021/06/22 04:49:42;;;;;;;19.25;12.77;;;;;;;;;;5093379;28;20148;-73
2021/06/22 04:52:11;;;;;;;13.45;10.88;;;;;;;;;;5074349;28;20070;-72
2021/06/22 04:54:37;;;;;;;18.50;11.23;;;;;;;;;;5092856;28;20028;-72
2021/06/22 04:57:03;;;;;;;14.75;10.75;;;;;;;;;;5092792;28;20032;-72
2021/06/22 04:59:31;;;;;;;13.63;10.25;;;;;;;;;;5093052;28;20035;-73
2021/06/22 05:01:59;;;;;;;18.15;11.20;;;;;;;;;;5092902;28;20024;-73
2021/06/22 05:04:25;;;;;;;16.58;11.45;;;;;;;;;;5093168;28;20048;-73
2021/06/22 05:06:51;;;;;;;23.90;12.15;;;;;;;;;;5092688;28;20032;-73
2021/06/22 05:09:17;;;;;;;14.93;12.00;;;;;;;;;;5093278;28;20032;-72
2021/06/22 05:11:43;;;;;;;19.15;10.77;;;;;;;;;;5092895;28;20032;-71
2021/06/22 05:14:09;;;;;;;20.38;10.43;;;;;;;;;;5093352;28;20474;-72
2021/06/22 05:16:35;;;;;;;13.70;9.50;;;;;;;;;;5092660;28;20408;-73
2021/06/22 05:19:01;;;;;;;15.30;12.23;;;;;;;;;;5092073;28;20039;-73
2021/06/22 05:21:29;;;;;;;14.65;11.55;;;;;;;;;;5093626;28;20112;-73
2021/06/22 05:23:55;;;;;;;13.07;10.07;;;;;;;;;;5093808;28;20056;-72
2021/06/22 05:26:21;;;;;;;15.73;11.88;;;;;;;;;;5093417;28;20063;-72
2021/06/22 05:28:47;;;;;;;13.40;10.23;;;;;;;;;;5093681;28;20035;-72
2021/06/22 05:31:13;;;;;;;13.05;11.40;;;;;;;;;;5093364;28;20429;-73
2021/06/22 05:33:39;;;;;;;12.48;9.55;;;;;;;;;;5094172;28;20094;-72
2021/06/22 05:36:05;;;;;;;10.82;9.73;;;;;;;;;;5093948;28;20020;-72
2021/06/22 05:38:31;;;;;;;13.95;12.57;;;;;;;;;;5093856;28;20028;-72
2021/06/22 05:40:57;;;;;;;9.75;8.95;;;;;;;;;;5093274;28;20024;-72
2021/06/22 05:43:23;;;;;;;14.48;12.07;;;;;;;;;;5093145;28;20020;-74
2021/06/22 05:45:49;;;;;;;12.10;10.57;;;;;;;;;;5094158;28;20056;-73
2021/06/22 05:48:16;;;;;;;13.57;10.93;;;;;;;;;;5097096;28;20393;-73
2021/06/22 05:50:42;;;;;;;10.98;9.70;;;;;;;;;;5096548;28;20459;-73
2021/06/22 05:53:08;;;;;;;12.80;9.43;;;;;;;;;;5096964;28;20413;-73
2021/06/22 05:55:34;;;;;;;10.82;9.80;;;;;;;;;;5096945;28;20028;-73
2021/06/22 05:58:00;;;;;;;25.77;9.57;;;;;;;;;;5097139;28;20165;-73
2021/06/22 06:00:26;;;;;;;13.43;10.57;;;;;;;;;;5096879;28;20020;-73
2021/06/22 06:02:52;;;;;;;15.38;9.10;;;;;;;;;;5096459;28;20035;-73
2021/06/22 06:05:18;;;;;;;11.93;9.50;;;;;;;;;;5096354;28;20362;-73
2021/06/22 06:07:45;;;;;;;12.30;10.80;;;;;;;;;;5097240;28;20077;-73
2021/06/22 06:10:11;;;;;;;10.60;9.48;;;;;;;;;;5096948;28;20032;-73
2021/06/22 06:12:37;;;;;;;11.10;10.00;;;;;;;;;;5096775;28;20036;-73
2021/06/22 06:15:04;;;;;;;12.70;9.70;;;;;;;;;;5096593;28;20107;-73
2021/06/22 06:17:30;;;;;;;16.60;10.38;;;;;;;;;;5096419;28;20032;-73
2021/06/22 06:19:56;;;;;;;14.80;11.32;;;;;;;;;;5096422;28;20129;-73
2021/06/22 06:22:22;;;;;;;19.25;9.82;;;;;;;;;;5096168;28;20031;-73
2021/06/22 06:24:48;;;;;;;12.90;9.35;;;;;;;;;;5096706;28;20028;-73
2021/06/22 06:27:17;;;;;;;11.75;9.88;;;;;;;;;;5096537;28;20476;-73
2021/06/22 06:30:04;;;;;;;10.15;9.20;;;;;;;;;;5095911;28;20065;-73
2021/06/22 06:32:29;;;;;;;9.60;8.70;;;;;;;;;;5080609;28;20033;-73
2021/06/22 06:34:55;;;;;;;17.92;10.95;;;;;;;;;;5095439;28;20031;-75
2021/06/22 06:37:21;;;;;;;13.27;9.55;;;;;;;;;;5095548;28;20486;-73
2021/06/22 06:39:47;;;;;;;32.53;8.98;;;;;;;;;;5095199;28;20016;-72
2021/06/22 06:42:13;;;;;;;9.98;9.00;;;;;;;;;;5095835;28;20024;-73
2021/06/22 06:44:39;;;;;;;12.48;8.48;;;;;;;;;;5095466;28;20020;-72
2021/06/22 06:47:05;;;;;;;13.60;8.77;;;;;;;;;;5095927;28;20056;-72
2021/06/22 06:49:35;;;;;;;10.65;8.57;;;;;;;;;;5095110;28;20544;-71
2021/06/22 06:52:01;;;;;;;12.20;10.05;;;;;;;;;;5096032;28;20031;-74
2021/06/22 06:54:27;;;;;;;14.52;9.07;;;;;;;;;;5095900;28;20032;-75
2021/06/22 06:56:53;;;;;;;14.20;8.65;;;;;;;;;;5094254;28;20408;-75
2021/06/22 06:59:19;;;;;;;13.63;9.48;;;;;;;;;;5095022;28;20389;-75
2021/06/22 07:01:45;;;;;;;11.15;8.32;;;;;;;;;;5096209;28;20084;-75
2021/06/22 07:04:43;;;;;;;23.33;9.68;;;;;;;;;;5095475;28;20027;-75
2021/06/22 07:07:09;;;;;;;21.15;8.95;;;;;;;;;;5095469;28;20043;-75
2021/06/22 07:09:36;;;;;;;19.52;10.05;;;;;;;;;;5095170;28;20028;-74
2021/06/22 07:12:02;;;;;;;15.63;9.05;;;;;;;;;;5096118;28;20031;-74
2021/06/22 07:14:28;;;;;;;15.13;8.02;;;;;;;;;;5096146;28;20175;-74
2021/06/22 07:16:54;;;;;;;26.95;8.48;;;;;;;;;;5095338;28;20107;-72
2021/06/22 07:19:20;;;;;;;31.17;8.43;;;;;;;;;;5095510;28;20031;-73
2021/06/22 07:21:46;;;;;;;15.55;8.05;;;;;;;;;;5095388;28;20087;-75
2021/06/22 07:24:12;;;;;;;17.15;7.93;;;;;;;;;;5095076;28;20465;-72
2021/06/22 07:26:38;;;;;;;12.48;7.10;;;;;;;;;;5095917;28;20040;-73
2021/06/22 07:29:05;;;;;;;17.52;8.20;;;;;;;;;;5096136;28;20032;-72
2021/06/22 07:31:31;;;;;;;16.77;7.57;;;;;;;;;;5094845;28;20025;-71
2021/06/22 07:33:57;;;;;;;14.25;7.35;;;;;;;;;;5095563;28;20064;-73
2021/06/22 07:36:23;;;;;;;20.38;9.20;;;;;;;;;;5095118;28;20024;-72
2021/06/22 07:38:49;;;;;;;12.10;8.63;;;;;;;;;;5095044;28;20060;-72
2021/06/22 07:41:17;;;;;;;13.30;7.85;;;;;;;;;;5094127;28;20477;-73
2021/06/22 07:43:43;;;;;;;20.50;8.23;;;;;;;;;;5095206;28;20020;-74
2021/06/22 07:46:09;;;;;;;10.90;7.32;;;;;;;;;;5094924;28;20020;-70
2021/06/22 07:48:35;;;;;;;14.68;7.13;;;;;;;;;;5095222;28;20027;-72
2021/06/22 07:51:01;;;;;;;18.08;9.57;;;;;;;;;;5094870;28;20055;-73
2021/06/22 07:53:27;;;;;;;22.35;8.27;;;;;;;;;;5094318;28;20443;-74
2021/06/22 07:55:53;;;;;;;12.18;7.07;;;;;;;;;;5094604;28;20028;-73
2021/06/22 07:58:19;;;;;;;22.00;8.35;;;;;;;;;;5094829;28;20093;-73
2021/06/22 08:00:46;;;;;;;13.13;6.72;;;;;;;;;;5093659;28;20530;-74
2021/06/22 08:03:12;;;;;;;12.43;5.78;;;;;;;;;;5094805;28;20477;-74
2021/06/22 08:05:39;;;;;;;17.23;6.65;;;;;;;;;;5094595;28;20085;-72
2021/06/22 08:08:05;;;;;;;13.80;5.95;;;;;;;;;;5093838;28;20089;-73
2021/06/22 08:10:31;;;;;;;17.90;7.80;;;;;;;;;;5094023;28;20420;-72
2021/06/22 08:12:57;;;;;;;14.00;6.85;;;;;;;;;;5095034;28;20054;-74
2021/06/22 08:15:24;;;;;;;10.85;5.68;;;;;;;;;;5094836;28;20028;-74
2021/06/22 08:17:50;;;;;;;12.60;6.03;;;;;;;;;;5094533;28;20027;-73
2021/06/22 08:20:16;;;;;;;14.57;6.72;;;;;;;;;;5094128;28;20385;-72
2021/06/22 08:22:42;;;;;;;22.88;7.72;;;;;;;;;;5094096;28;20028;-72
2021/06/22 08:25:11;;;;;;;13.25;6.15;;;;;;;;;;5094415;28;20366;-72
2021/06/22 08:27:37;;;;;;;12.63;6.00;;;;;;;;;;5093997;28;20024;-72
2021/06/22 08:30:04;;;;;;;11.63;6.53;;;;;;;;;;5094277;28;20070;-72
2021/06/22 08:32:30;;;;;;;14.45;7.15;;;;;;;;;;5094383;28;20024;-72
2021/06/22 08:34:57;;;;;;;9.07;5.57;;;;;;;;;;5093938;28;20020;-72
2021/06/22 08:37:23;;;;;;;8.50;6.05;;;;;;;;;;5093832;28;20463;-72
2021/06/22 08:39:49;;;;;;;14.43;6.18;;;;;;;;;;5094222;28;20362;-73
2021/06/22 08:42:16;;;;;;;10.30;6.75;;;;;;;;;;5094504;28;20024;-72
2021/06/22 08:44:42;;;;;;;13.27;7.05;;;;;;;;;;5093904;28;20039;-72
2021/06/22 08:47:08;;;;;;;13.18;7.20;;;;;;;;;;5094175;28;20024;-72
2021/06/22 08:49:34;;;;;;;13.00;7.15;;;;;;;;;;5093247;28;20059;-73
2021/06/22 08:52:00;;;;;;;8.50;5.68;;;;;;;;;;5093592;28;20410;-73
2021/06/22 08:54:27;;;;;;;17.83;6.72;;;;;;;;;;5093765;28;20076;-73
2021/06/22 08:56:55;;;;;;;12.70;6.57;;;;;;;;;;5093416;28;20488;-73
2021/06/22 08:59:21;;;;;;;9.55;6.43;;;;;;;;;;5093698;28;20029;-71
2021/06/22 09:01:48;;;;;;;11.20;6.68;;;;;;;;;;5094083;28;20028;-71
2021/06/22 09:04:15;;;;;;;11.90;6.43;;;;;;;;;;5093723;28;20365;-71
2021/06/22 09:06:41;;;;;;;10.68;6.13;;;;;;;;;;5093389;28;20024;-71
2021/06/22 09:09:08;;;;;;;12.20;6.57;;;;;;;;;;5093824;28;20036;-71
2021/06/22 09:11:34;;;;;;;7.15;5.53;;;;;;;;;;5093792;28;20125;-71
2021/06/22 09:14:00;;;;;;;10.77;6.32;;;;;;;;;;5093676;28;20020;-71
2021/06/22 09:16:26;;;;;;;11.13;6.00;;;;;;;;;;5093898;28;20111;-70
2021/06/22 09:18:52;;;;;;;11.43;6.55;;;;;;;;;;5093530;28;20032;-71
2021/06/22 09:21:23;;;;;;;8.57;5.25;;;;;;;;;;5094712;28;20108;-73
2021/06/22 09:23:49;;;;;;;9.30;5.97;;;;;;;;;;5097856;28;20023;-72
2021/06/22 09:26:17;;;;;;;9.45;5.70;;;;;;;;;;5097521;28;20030;-72
2021/06/22 09:28:43;;;;;;;11.07;6.28;;;;;;;;;;5097623;28;20024;-72
2021/06/22 09:31:10;;;;;;;8.45;5.55;;;;;;;;;;5097399;28;20028;-72
2021/06/22 09:33:44;;;;;;;11.25;5.72;;;;;;;;;;5097305;28;20016;-72
2021/06/22 09:36:26;;;;;;;12.75;6.40;;;;;;;;;;5097620;28;20035;-72
2021/06/22 09:39:03;;;;;;;11.10;5.93;;;;;;;;;;5097423;28;20028;-72
2021/06/22 09:41:31;;;;;;;10.82;5.50;;;;;;;;;;5097470;28;20067;-71
2021/06/22 09:44:07;;;;;;;7.60;5.22;;;;;;;;;;5097068;28;20024;-72
2021/06/22 09:46:35;;;;;;;8.38;5.78;;;;;;;;;;5096999;28;20074;-71
2021/06/22 09:49:01;;;;;;;16.92;5.85;;;;;;;;;;5096829;28;20500;-72
2021/06/22 09:51:31;;;;;;;26.25;6.00;;;;;;;;;;5096621;28;20044;-73
2021/06/22 09:54:17;;;;;;;11.13;6.00;;;;;;;;;;5096776;28;20016;-72
2021/06/22 09:56:59;;;;;;;10.32;6.72;;;;;;;;;;5081977;28;20028;-72
2021/06/22 09:59:25;;;;;;;6.22;5.20;;;;;;;;;;5097441;28;20046;-72
2021/06/22 10:01:52;;;;;;;12.05;7.50;;;;;;;;;;5096966;28;20055;-72
2021/06/22 10:04:21;;;;;;;13.90;6.28;;;;;;;;;;5096588;28;20534;-72
2021/06/22 10:06:49;;;;;;;22.48;6.65;;;;;;;;;;5096729;28;20378;-72
2021/06/22 10:09:35;;;;;;;15.55;6.40;;;;;;;;;;5096335;28;20055;-73
2021/06/22 10:12:02;;;;;;;9.68;7.13;;;;;;;;;;5082287;28;20055;-73
2021/06/22 10:14:39;;;;;;;9.48;6.50;;;;;;;;;;5096477;28;20032;-73
2021/06/22 10:17:07;;;;;;;13.13;6.95;;;;;;;;;;5096690;28;20055;-74
2021/06/22 10:19:33;;;;;;;11.93;7.53;;;;;;;;;;5096079;28;20382;-73
2021/06/22 10:22:00;;;;;;;10.45;6.97;;;;;;;;;;5096746;28;20031;-72
2021/06/22 10:24:26;;;;;;;12.15;7.40;;;;;;;;;;5096285;28;20027;-72
2021/06/22 10:26:53;;;;;;;12.75;6.95;;;;;;;;;;5096175;28;20074;-72
2021/06/22 10:29:20;;;;;;;10.13;7.10;;;;;;;;;;5096582;28;20032;-72
2021/06/22 10:31:47;;;;;;;10.00;6.40;;;;;;;;;;5095826;28;20027;-72
2021/06/22 10:34:14;;;;;;;16.52;6.28;;;;;;;;;;5096205;28;20020;-72
2021/06/22 10:36:41;;;;;;;9.57;5.70;;;;;;;;;;5095993;28;20055;-72
2021/06/22 10:39:09;;;;;;;11.75;6.78;;;;;;;;;;5096543;28;20032;-72
2021/06/22 10:41:36;;;;;;;10.77;5.65;;;;;;;;;;5096337;28;20043;-72
2021/06/22 10:44:07;;;;;;;6.90;4.93;;;;;;;;;;5096382;28;20457;-72
2021/06/22 10:46:33;;;;;;;8.10;5.45;;;;;;;;;;5096220;28;20029;-72
2021/06/22 10:49:07;;;;;;;8.57;5.20;;;;;;;;;;5095808;28;20065;-73
2021/06/22 10:51:45;;;;;;;7.82;5.35;;;;;;;;;;5096457;28;20504;-72
2021/06/22 10:54:13;;;;;;;9.38;5.55;;;;;;;;;;5096193;28;20036;-72
2021/06/22 10:56:42;;;;;;;7.78;5.25;;;;;;;;;;5096059;28;20025;-72
2021/06/22 10:59:28;;;;;;;8.60;5.97;;;;;;;;;;5095625;28;20024;-72
2021/06/22 11:01:56;;;;;;;9.82;4.90;;;;;;;;;;5080697;28;20031;-72
2021/06/22 11:04:22;;;;;;;9.15;5.25;;;;;;;;;;5096136;28;20020;-72
2021/06/22 11:07:08;;;;;;;8.63;5.13;;;;;;;;;;5095831;28;20465;-72
2021/06/22 11:09:35;;;;;;;9.15;5.55;;;;;;;;;;5080596;28;20047;-72
2021/06/22 11:12:21;;;;;;;9.85;6.07;;;;;;;;;;5095313;28;20020;-73
2021/06/22 11:15:03;;;;;;;7.55;4.38;;;;;;;;;;5080556;28;20027;-72
2021/06/22 11:17:49;;;;;;;9.35;5.35;;;;;;;;;;5095590;28;20035;-72
2021/06/22 11:20:16;;;;;;;11.13;5.35;;;;;;;;;;5080152;28;20560;-72
2021/06/22 11:23:02;;;;;;;5.97;5.20;;;;;;;;;;5094923;28;20435;-72
2021/06/22 11:25:48;;;;;;;7.63;4.47;;;;;;;;;;5080758;28;20028;-72
2021/06/22 11:28:14;;;;;;;8.95;4.97;;;;;;;;;;5080245;28;20401;-72
2021/06/22 11:30:57;;;;;;;10.30;4.43;;;;;;;;;;5095013;28;20086;-73
2021/06/22 11:33:31;;;;;;;9.02;4.03;;;;;;;;;;5095315;28;20028;-72
2021/06/22 11:36:16;;;;;;;8.20;4.78;;;;;;;;;;5095354;28;20516;-73
2021/06/22 11:38:43;;;;;;;13.75;6.00;;;;;;;;;;5080065;28;20024;-71
2021/06/22 11:41:11;;;;;;;15.88;6.15;;;;;;;;;;5094597;28;20070;-72
2021/06/22 11:43:37;;;;;;;8.35;4.72;;;;;;;;;;5093930;28;20030;-72
2021/06/22 11:46:23;;;;;;;6.40;5.15;;;;;;;;;;5095358;28;20032;-72
2021/06/22 11:48:56;;;;;;;17.55;6.18;;;;;;;;;;5079803;28;20374;-71
2021/06/22 11:51:42;;;;;;;10.93;5.55;;;;;;;;;;5096618;28;20066;-73
2021/06/22 11:54:08;;;;;;;14.35;5.85;;;;;;;;;;5088638;28;20020;-72
2021/06/22 11:56:35;;;;;;;9.45;5.35;;;;;;;;;;5102773;28;20027;-73
2021/06/22 11:59:01;;;;;;;9.75;6.28;;;;;;;;;;5103184;28;20077;-72
2021/06/22 12:01:27;;;;;;;7.70;4.88;;;;;;;;;;5104136;28;20027;-72
2021/06/22 12:03:53;;;;;;;6.25;4.75;;;;;;;;;;5102159;28;20489;-76
2021/06/22 12:06:21;;;;;;;6.63;4.55;;;;;;;;;;5102752;28;20015;-75
2021/06/22 12:08:47;;;;;;;8.93;5.57;;;;;;;;;;5103862;28;20421;-75
2021/06/22 12:11:16;;;;;;;7.82;4.82;;;;;;;;;;5102491;28;20047;-73
2021/06/22 12:13:44;;;;;;;8.25;5.30;;;;;;;;;;5103249;28;20024;-73
2021/06/22 12:16:12;;;;;;;8.45;5.45;;;;;;;;;;5105507;28;20016;-74
2021/06/22 12:18:38;;;;;;;11.38;6.28;;;;;;;;;;5102850;28;20201;-73
2021/06/22 12:21:04;;;;;;;8.55;5.30;;;;;;;;;;5101913;28;20031;-75
2021/06/22 12:23:30;;;;;;;6.15;5.00;;;;;;;;;;5104295;28;20369;-75
2021/06/22 12:25:57;;;;;;;12.40;5.65;;;;;;;;;;5102945;28;20020;-73
2021/06/22 12:28:24;;;;;;;10.38;5.85;;;;;;;;;;5102899;28;20020;-76
2021/06/22 12:30:51;;;;;;;9.93;5.13;;;;;;;;;;5103729;28;20489;-75
2021/06/22 12:33:18;;;;;;;5.68;5.07;;;;;;;;;;5101086;28;20020;-75
2021/06/22 12:35:45;;;;;;;5.57;4.70;;;;;;;;;;5103979;28;20025;-75
2021/06/22 12:38:12;;;;;;;4.90;4.50;;;;;;;;;;5102123;28;20023;-75
2021/06/22 12:40:41;;;;;;;6.43;4.93;;;;;;;;;;5103381;28;20023;-75
2021/06/22 12:43:07;;;;;;;9.02;6.18;;;;;;;;;;5104068;28;20028;-75
2021/06/22 12:45:33;;;;;;;7.70;5.13;;;;;;;;;;5102075;28;20449;-75
2021/06/22 12:47:59;;;;;;;11.55;6.20;;;;;;;;;;5102736;28;20024;-74
2021/06/22 12:50:28;;;;;;;11.23;5.82;;;;;;;;;;5103128;28;20534;-74
2021/06/22 12:52:54;;;;;;;5.60;5.10;;;;;;;;;;5101467;28;20055;-73
2021/06/22 12:55:35;;;;;;;10.10;5.47;;;;;;;;;;5100506;28;20027;-75
2021/06/22 12:58:01;;;;;;;10.27;6.10;;;;;;;;;;5111697;28;20016;-76
2021/06/22 13:00:38;;;;;;;20.02;6.07;;;;;;;;;;5104067;28;20094;-75
2021/06/22 13:03:08;;;;;;;7.80;6.50;;;;;;;;;;5107687;28;20062;-73
2021/06/22 13:05:36;;;;;;;8.43;5.68;;;;;;;;;;5104870;28;20030;-74
2021/06/22 13:08:02;;;;;;;8.95;6.20;;;;;;;;;;5103949;28;20032;-74
2021/06/22 13:10:28;;;;;;;6.78;6.13;;;;;;;;;;5106161;28;20108;-72
2021/06/22 13:12:54;;;;;;;11.45;5.43;;;;;;;;;;5105651;28;20035;-76
2021/06/22 13:15:36;;;;;;;8.63;4.60;;;;;;;;;;5107496;28;20373;-76
2021/06/22 13:18:03;;;;;;;11.18;7.20;;;;;;;;;;5107428;28;20483;-75
2021/06/22 13:20:31;;;;;;;16.25;6.57;;;;;;;;;;5105557;28;20042;-76
2021/06/22 13:23:02;;;;;;;7.32;6.57;;;;;;;;;;5104048;28;20031;-76
2021/06/22 13:25:29;;;;;;;7.80;5.78;;;;;;;;;;5106458;28;20157;-74
2021/06/22 13:27:57;;;;;;;14.13;6.88;;;;;;;;;;5108573;28;20081;-76
2021/06/22 13:30:27;;;;;;;6.78;6.05;;;;;;;;;;5104060;28;20358;-75
2021/06/22 13:32:54;;;;;;;27.38;7.95;;;;;;;;;;5105716;28;20032;-77
2021/06/22 13:35:29;;;;;;;12.95;5.82;;;;;;;;;;5102276;28;20032;-75
2021/06/22 13:38:15;;;;;;;10.43;6.03;;;;;;;;;;5107244;28;20099;-76
2021/06/22 13:41:01;;;;;;;16.73;6.90;;;;;;;;;;5088440;28;20020;-75
2021/06/22 13:43:43;;;;;;;14.13;6.53;;;;;;;;;;5090066;28;20027;-75
2021/06/22 13:46:09;;;;;;;11.63;6.60;;;;;;;;;;5100976;28;20051;-75
2021/06/22 13:48:36;;;;;;;16.63;7.47;;;;;;;;;;5105502;28;20042;-72
2021/06/22 13:51:03;;;;;;;9.02;5.80;;;;;;;;;;5103692;28;20056;-73
2021/06/22 13:53:33;;;;;;;8.73;5.03;;;;;;;;;;5099576;28;20024;-72
2021/06/22 13:55:59;;;;;;;10.80;5.90;;;;;;;;;;5105762;28;20065;-71
2021/06/22 13:58:25;;;;;;;12.13;6.93;;;;;;;;;;5106236;28;20081;-71
2021/06/22 14:00:52;;;;;;;11.80;6.78;;;;;;;;;;5105427;28;20035;-71
2021/06/22 14:03:18;;;;;;;13.98;7.50;;;;;;;;;;5096162;28;20027;-72
2021/06/22 14:05:44;;;;;;;10.23;7.22;;;;;;;;;;5093819;28;20051;-74
2021/06/22 14:08:10;;;;;;;19.15;7.22;;;;;;;;;;5095145;28;20530;-74
2021/06/22 14:10:38;;;;;;;9.60;6.40;;;;;;;;;;5096292;28;20082;-73
2021/06/22 14:13:04;;;;;;;13.45;5.85;;;;;;;;;;5095861;28;20056;-73
2021/06/22 14:15:31;;;;;;;15.60;7.47;;;;;;;;;;5095910;28;20499;-73
2021/06/22 14:17:57;;;;;;;17.90;8.23;;;;;;;;;;5095736;28;20024;-72
2021/06/22 14:20:24;;;;;;;13.55;7.22;;;;;;;;;;5095573;28;20024;-73
2021/06/22 14:22:50;;;;;;;12.65;6.22;;;;;;;;;;5095665;28;20028;-75
2021/06/22 14:25:16;;;;;;;15.25;6.85;;;;;;;;;;5095317;28;20027;-74
2021/06/22 14:27:42;;;;;;;11.65;7.00;;;;;;;;;;5098043;28;20028;-74
2021/06/22 14:30:10;;;;;;;16.38;7.10;;;;;;;;;;5106723;28;20038;-72
2021/06/22 14:32:36;;;;;;;15.05;6.25;;;;;;;;;;5116531;28;20135;-75
2021/06/22 14:35:02;;;;;;;7.85;6.10;;;;;;;;;;5115189;28;20023;-72